sensor_id;sensor_type;location;lat;lon;timestamp;P1;durP1;ratioP1;P2;durP2;ratioP2
52468;SDS011;38381;53.688;10.776;2023-12-20T00:01:52;16.98;;;4.22;;
52468;SDS011;38381;53.688;10.776;2023-12-20T00:06:57;7.75;;;3.67;;
52468;SDS011;38381;53.688;10.776;2023-12-20T00:12:31;7.15;;;3.53;;
52468;SDS011;38381;53.688;10.776;2023-12-20T00:17:38;14.77;;;4.78;;
52468;SDS011;38381;53.688;10.776;2023-12-20T00:22:40;7.13;;;3.28;;
52468;SDS011;38381;53.688;10.776;2023-12-20T00:27:44;8.95;;;3.38;;
52468;SDS011;38381;53.688;10.776;2023-12-20T00:32:57;6.85;;;3.83;;
52468;SDS011;38381;53.688;10.776;2023-12-20T00:38:00;13.13;;;3.75;;
52468;SDS011;38381;53.688;10.776;2023-12-20T00:43:19;5.85;;;3.70;;
52468;SDS011;38381;53.688;10.776;2023-12-20T00:48:31;6.30;;;2.97;;
52468;SDS011;38381;53.688;10.776;2023-12-20T00:53:32;8.98;;;3.45;;
52468;SDS011;38381;53.688;10.776;2023-12-20T00:58:40;10.27;;;4.18;;
52468;SDS011;38381;53.688;10.776;2023-12-20T01:03:46;7.90;;;3.45;;
52468;SDS011;38381;53.688;10.776;2023-12-20T01:08:50;8.68;;;3.20;;
52468;SDS011;38381;53.688;10.776;2023-12-20T01:14:12;8.27;;;3.22;;
52468;SDS011;38381;53.688;10.776;2023-12-20T01:19:27;12.52;;;3.78;;
52468;SDS011;38381;53.688;10.776;2023-12-20T01:24:35;15.15;;;4.15;;
52468;SDS011;38381;53.688;10.776;2023-12-20T01:30:28;5.40;;;3.22;;
52468;SDS011;38381;53.688;10.776;2023-12-20T01:35:32;10.32;;;3.65;;
52468;SDS011;38381;53.688;10.776;2023-12-20T01:40:44;9.17;;;3.60;;
52468;SDS011;38381;53.688;10.776;2023-12-20T01:45:47;7.72;;;3.35;;
52468;SDS011;38381;53.688;10.776;2023-12-20T01:50:51;6.82;;;3.08;;
52468;SDS011;38381;53.688;10.776;2023-12-20T01:55:58;10.95;;;4.28;;
52468;SDS011;38381;53.688;10.776;2023-12-20T02:01:01;8.30;;;4.00;;
52468;SDS011;38381;53.688;10.776;2023-12-20T02:06:03;6.15;;;3.45;;
52468;SDS011;38381;53.688;10.776;2023-12-20T02:11:04;6.13;;;4.00;;
52468;SDS011;38381;53.688;10.776;2023-12-20T02:16:04;9.52;;;3.28;;
52468;SDS011;38381;53.688;10.776;2023-12-20T02:21:07;10.07;;;5.03;;
52468;SDS011;38381;53.688;10.776;2023-12-20T02:26:07;4.15;;;2.90;;
52468;SDS011;38381;53.688;10.776;2023-12-20T02:31:08;8.18;;;2.83;;
52468;SDS011;38381;53.688;10.776;2023-12-20T02:36:09;5.78;;;3.05;;
52468;SDS011;38381;53.688;10.776;2023-12-20T02:41:09;5.55;;;2.90;;
52468;SDS011;38381;53.688;10.776;2023-12-20T02:46:09;11.32;;;3.45;;
52468;SDS011;38381;53.688;10.776;2023-12-20T02:51:10;8.00;;;2.70;;
52468;SDS011;38381;53.688;10.776;2023-12-20T02:56:10;15.27;;;3.53;;
52468;SDS011;38381;53.688;10.776;2023-12-20T03:01:11;14.52;;;4.68;;
52468;SDS011;38381;53.688;10.776;2023-12-20T03:06:11;7.70;;;3.67;;
52468;SDS011;38381;53.688;10.776;2023-12-20T03:11:17;13.55;;;3.97;;
52468;SDS011;38381;53.688;10.776;2023-12-20T03:16:18;5.10;;;3.60;;
52468;SDS011;38381;53.688;10.776;2023-12-20T03:21:18;10.65;;;3.75;;
52468;SDS011;38381;53.688;10.776;2023-12-20T03:26:19;9.40;;;4.32;;
52468;SDS011;38381;53.688;10.776;2023-12-20T03:31:19;12.77;;;4.18;;
52468;SDS011;38381;53.688;10.776;2023-12-20T03:36:21;10.48;;;3.95;;
52468;SDS011;38381;53.688;10.776;2023-12-20T03:41:21;14.73;;;4.03;;
52468;SDS011;38381;53.688;10.776;2023-12-20T03:46:22;6.85;;;3.95;;
52468;SDS011;38381;53.688;10.776;2023-12-20T03:51:22;4.05;;;3.45;;
52468;SDS011;38381;53.688;10.776;2023-12-20T03:56:23;7.25;;;3.53;;
52468;SDS011;38381;53.688;10.776;2023-12-20T04:01:23;10.45;;;3.15;;
52468;SDS011;38381;53.688;10.776;2023-12-20T04:06:26;10.45;;;3.38;;
52468;SDS011;38381;53.688;10.776;2023-12-20T04:11:27;7.60;;;4.13;;
52468;SDS011;38381;53.688;10.776;2023-12-20T04:16:27;4.35;;;3.63;;
52468;SDS011;38381;53.688;10.776;2023-12-20T04:21:28;5.68;;;4.28;;
52468;SDS011;38381;53.688;10.776;2023-12-20T04:26:28;11.27;;;4.53;;
52468;SDS011;38381;53.688;10.776;2023-12-20T04:31:29;11.73;;;4.50;;
52468;SDS011;38381;53.688;10.776;2023-12-20T04:36:30;7.57;;;4.25;;
52468;SDS011;38381;53.688;10.776;2023-12-20T04:41:30;5.65;;;4.03;;
52468;SDS011;38381;53.688;10.776;2023-12-20T04:46:31;9.32;;;4.57;;
52468;SDS011;38381;53.688;10.776;2023-12-20T04:51:34;8.25;;;4.20;;
52468;SDS011;38381;53.688;10.776;2023-12-20T04:56:35;9.00;;;4.15;;
52468;SDS011;38381;53.688;10.776;2023-12-20T05:01:35;8.88;;;4.97;;
52468;SDS011;38381;53.688;10.776;2023-12-20T05:06:36;9.35;;;3.63;;
52468;SDS011;38381;53.688;10.776;2023-12-20T05:11:37;10.10;;;4.05;;
52468;SDS011;38381;53.688;10.776;2023-12-20T05:16:37;5.97;;;3.78;;
52468;SDS011;38381;53.688;10.776;2023-12-20T05:21:37;7.20;;;4.43;;
52468;SDS011;38381;53.688;10.776;2023-12-20T05:26:38;6.72;;;3.75;;
52468;SDS011;38381;53.688;10.776;2023-12-20T05:31:38;4.07;;;3.53;;
52468;SDS011;38381;53.688;10.776;2023-12-20T05:36:39;11.02;;;5.07;;
52468;SDS011;38381;53.688;10.776;2023-12-20T05:41:39;5.00;;;3.78;;
52468;SDS011;38381;53.688;10.776;2023-12-20T05:46:40;17.67;;;5.30;;
52468;SDS011;38381;53.688;10.776;2023-12-20T05:51:40;9.73;;;5.22;;
52468;SDS011;38381;53.688;10.776;2023-12-20T05:56:41;8.95;;;4.47;;
52468;SDS011;38381;53.688;10.776;2023-12-20T06:01:41;10.05;;;6.18;;
52468;SDS011;38381;53.688;10.776;2023-12-20T06:06:42;10.52;;;4.18;;
52468;SDS011;38381;53.688;10.776;2023-12-20T06:11:43;7.55;;;5.18;;
52468;SDS011;38381;53.688;10.776;2023-12-20T06:16:44;9.00;;;4.75;;
52468;SDS011;38381;53.688;10.776;2023-12-20T06:21:45;8.52;;;5.93;;
52468;SDS011;38381;53.688;10.776;2023-12-20T06:26:45;8.35;;;4.20;;
52468;SDS011;38381;53.688;10.776;2023-12-20T06:31:46;11.75;;;6.38;;
52468;SDS011;38381;53.688;10.776;2023-12-20T06:36:46;6.20;;;3.95;;
52468;SDS011;38381;53.688;10.776;2023-12-20T06:41:47;7.20;;;3.92;;
52468;SDS011;38381;53.688;10.776;2023-12-20T06:46:47;11.27;;;4.55;;
52468;SDS011;38381;53.688;10.776;2023-12-20T06:51:48;3.90;;;3.17;;
52468;SDS011;38381;53.688;10.776;2023-12-20T06:56:48;4.97;;;3.10;;
52468;SDS011;38381;53.688;10.776;2023-12-20T07:01:49;13.55;;;3.90;;
52468;SDS011;38381;53.688;10.776;2023-12-20T07:06:49;8.52;;;3.58;;
52468;SDS011;38381;53.688;10.776;2023-12-20T07:11:56;8.32;;;3.97;;
52468;SDS011;38381;53.688;10.776;2023-12-20T07:16:57;7.97;;;4.80;;
52468;SDS011;38381;53.688;10.776;2023-12-20T07:21:57;10.25;;;3.97;;
52468;SDS011;38381;53.688;10.776;2023-12-20T07:27:01;9.73;;;5.82;;
52468;SDS011;38381;53.688;10.776;2023-12-20T07:32:02;9.00;;;4.85;;
52468;SDS011;38381;53.688;10.776;2023-12-20T07:37:02;13.57;;;5.05;;
52468;SDS011;38381;53.688;10.776;2023-12-20T07:42:04;12.93;;;5.68;;
52468;SDS011;38381;53.688;10.776;2023-12-20T07:47:04;6.57;;;4.55;;
52468;SDS011;38381;53.688;10.776;2023-12-20T07:52:05;6.28;;;4.78;;
52468;SDS011;38381;53.688;10.776;2023-12-20T07:57:08;8.32;;;4.70;;
52468;SDS011;38381;53.688;10.776;2023-12-20T08:02:10;10.90;;;4.43;;
52468;SDS011;38381;53.688;10.776;2023-12-20T08:07:11;12.88;;;4.95;;
52468;SDS011;38381;53.688;10.776;2023-12-20T08:12:12;11.20;;;5.28;;
52468;SDS011;38381;53.688;10.776;2023-12-20T08:17:13;14.35;;;5.63;;
52468;SDS011;38381;53.688;10.776;2023-12-20T08:22:16;8.68;;;5.53;;
52468;SDS011;38381;53.688;10.776;2023-12-20T08:27:17;10.90;;;5.22;;
52468;SDS011;38381;53.688;10.776;2023-12-20T08:32:18;9.43;;;4.32;;
52468;SDS011;38381;53.688;10.776;2023-12-20T08:37:18;10.93;;;6.35;;
52468;SDS011;38381;53.688;10.776;2023-12-20T08:42:19;11.25;;;4.65;;
52468;SDS011;38381;53.688;10.776;2023-12-20T08:47:19;9.73;;;4.60;;
52468;SDS011;38381;53.688;10.776;2023-12-20T08:52:20;10.13;;;5.25;;
52468;SDS011;38381;53.688;10.776;2023-12-20T08:57:20;8.48;;;5.18;;
52468;SDS011;38381;53.688;10.776;2023-12-20T09:02:24;10.38;;;5.57;;
52468;SDS011;38381;53.688;10.776;2023-12-20T09:07:25;6.63;;;3.95;;
52468;SDS011;38381;53.688;10.776;2023-12-20T09:12:26;10.82;;;3.97;;
52468;SDS011;38381;53.688;10.776;2023-12-20T09:17:27;7.03;;;4.38;;
52468;SDS011;38381;53.688;10.776;2023-12-20T09:22:28;7.65;;;4.35;;
52468;SDS011;38381;53.688;10.776;2023-12-20T09:27:28;9.13;;;6.53;;
52468;SDS011;38381;53.688;10.776;2023-12-20T09:32:28;8.95;;;4.50;;
52468;SDS011;38381;53.688;10.776;2023-12-20T09:37:29;6.55;;;4.45;;
52468;SDS011;38381;53.688;10.776;2023-12-20T09:42:38;7.65;;;4.00;;
52468;SDS011;38381;53.688;10.776;2023-12-20T09:47:49;8.40;;;4.82;;
52468;SDS011;38381;53.688;10.776;2023-12-20T09:52:50;10.77;;;4.00;;
52468;SDS011;38381;53.688;10.776;2023-12-20T09:57:51;5.67;;;2.93;;
52468;SDS011;38381;53.688;10.776;2023-12-20T10:02:59;6.32;;;2.90;;
52468;SDS011;38381;53.688;10.776;2023-12-20T10:08:00;2.95;;;2.55;;
52468;SDS011;38381;53.688;10.776;2023-12-20T10:13:02;6.60;;;3.50;;
52468;SDS011;38381;53.688;10.776;2023-12-20T10:18:06;7.50;;;2.95;;
52468;SDS011;38381;53.688;10.776;2023-12-20T10:23:06;2.78;;;1.90;;
52468;SDS011;38381;53.688;10.776;2023-12-20T10:28:14;2.20;;;1.88;;
52468;SDS011;38381;53.688;10.776;2023-12-20T10:33:26;3.50;;;1.50;;
52468;SDS011;38381;53.688;10.776;2023-12-20T10:38:28;5.25;;;2.75;;
52468;SDS011;38381;53.688;10.776;2023-12-20T10:43:30;7.40;;;1.97;;
52468;SDS011;38381;53.688;10.776;2023-12-20T10:48:33;4.40;;;2.05;;
52468;SDS011;38381;53.688;10.776;2023-12-20T10:53:34;4.73;;;1.63;;
52468;SDS011;38381;53.688;10.776;2023-12-20T10:58:36;3.23;;;1.53;;
52468;SDS011;38381;53.688;10.776;2023-12-20T11:03:43;2.10;;;1.90;;
52468;SDS011;38381;53.688;10.776;2023-12-20T11:08:50;2.97;;;1.63;;
52468;SDS011;38381;53.688;10.776;2023-12-20T11:14:01;3.92;;;2.17;;
52468;SDS011;38381;53.688;10.776;2023-12-20T11:19:07;2.25;;;1.77;;
52468;SDS011;38381;53.688;10.776;2023-12-20T11:24:07;11.80;;;2.95;;
52468;SDS011;38381;53.688;10.776;2023-12-20T11:34:33;4.75;;;1.92;;
52468;SDS011;38381;53.688;10.776;2023-12-20T11:39:35;3.20;;;1.63;;
52468;SDS011;38381;53.688;10.776;2023-12-20T11:44:36;2.28;;;1.52;;
52468;SDS011;38381;53.688;10.776;2023-12-20T11:49:37;1.98;;;1.67;;
52468;SDS011;38381;53.688;10.776;2023-12-20T11:54:38;1.55;;;1.45;;
52468;SDS011;38381;53.688;10.776;2023-12-20T11:59:38;4.35;;;2.08;;
52468;SDS011;38381;53.688;10.776;2023-12-20T12:04:41;4.10;;;2.50;;
52468;SDS011;38381;53.688;10.776;2023-12-20T12:09:42;5.75;;;2.85;;
52468;SDS011;38381;53.688;10.776;2023-12-20T12:14:44;4.03;;;2.30;;
52468;SDS011;38381;53.688;10.776;2023-12-20T12:19:45;6.93;;;2.80;;
52468;SDS011;38381;53.688;10.776;2023-12-20T12:24:46;5.05;;;2.75;;
52468;SDS011;38381;53.688;10.776;2023-12-20T12:30:03;5.20;;;2.37;;
52468;SDS011;38381;53.688;10.776;2023-12-20T12:35:07;3.80;;;2.25;;
52468;SDS011;38381;53.688;10.776;2023-12-20T12:40:12;8.90;;;4.00;;
52468;SDS011;38381;53.688;10.776;2023-12-20T12:45:13;3.83;;;2.25;;
52468;SDS011;38381;53.688;10.776;2023-12-20T12:50:15;6.00;;;3.20;;
52468;SDS011;38381;53.688;10.776;2023-12-20T12:55:15;8.70;;;4.18;;
52468;SDS011;38381;53.688;10.776;2023-12-20T13:00:16;3.97;;;3.03;;
52468;SDS011;38381;53.688;10.776;2023-12-20T13:05:16;4.80;;;2.92;;
52468;SDS011;38381;53.688;10.776;2023-12-20T13:10:17;11.43;;;3.78;;
52468;SDS011;38381;53.688;10.776;2023-12-20T13:15:18;13.77;;;3.67;;
52468;SDS011;38381;53.688;10.776;2023-12-20T13:20:18;7.50;;;3.58;;
52468;SDS011;38381;53.688;10.776;2023-12-20T13:25:19;8.75;;;3.47;;
52468;SDS011;38381;53.688;10.776;2023-12-20T13:30:19;10.77;;;4.07;;
52468;SDS011;38381;53.688;10.776;2023-12-20T13:35:19;9.45;;;3.53;;
52468;SDS011;38381;53.688;10.776;2023-12-20T13:40:20;14.10;;;4.60;;
52468;SDS011;38381;53.688;10.776;2023-12-20T13:45:21;12.00;;;4.60;;
52468;SDS011;38381;53.688;10.776;2023-12-20T13:50:21;9.57;;;3.65;;
52468;SDS011;38381;53.688;10.776;2023-12-20T13:55:22;10.45;;;4.30;;
52468;SDS011;38381;53.688;10.776;2023-12-20T14:00:25;8.68;;;3.90;;
52468;SDS011;38381;53.688;10.776;2023-12-20T14:05:25;6.22;;;3.60;;
52468;SDS011;38381;53.688;10.776;2023-12-20T14:10:27;7.13;;;3.97;;
52468;SDS011;38381;53.688;10.776;2023-12-20T14:15:28;11.82;;;4.95;;
52468;SDS011;38381;53.688;10.776;2023-12-20T14:20:28;25.75;;;4.75;;
52468;SDS011;38381;53.688;10.776;2023-12-20T14:25:29;10.13;;;3.95;;
52468;SDS011;38381;53.688;10.776;2023-12-20T14:30:31;7.20;;;3.70;;
52468;SDS011;38381;53.688;10.776;2023-12-20T14:35:32;12.10;;;3.42;;
52468;SDS011;38381;53.688;10.776;2023-12-20T14:40:32;12.30;;;4.70;;
52468;SDS011;38381;53.688;10.776;2023-12-20T14:45:33;11.93;;;4.53;;
52468;SDS011;38381;53.688;10.776;2023-12-20T14:50:33;8.52;;;4.95;;
52468;SDS011;38381;53.688;10.776;2023-12-20T14:55:34;7.80;;;4.95;;
52468;SDS011;38381;53.688;10.776;2023-12-20T15:00:35;14.70;;;4.10;;
52468;SDS011;38381;53.688;10.776;2023-12-20T15:05:35;6.68;;;4.60;;
52468;SDS011;38381;53.688;10.776;2023-12-20T15:10:36;12.00;;;4.53;;
52468;SDS011;38381;53.688;10.776;2023-12-20T15:15:36;12.10;;;4.93;;
52468;SDS011;38381;53.688;10.776;2023-12-20T15:20:37;15.20;;;5.45;;
52468;SDS011;38381;53.688;10.776;2023-12-20T15:25:38;8.07;;;5.10;;
52468;SDS011;38381;53.688;10.776;2023-12-20T15:30:38;8.68;;;4.80;;
52468;SDS011;38381;53.688;10.776;2023-12-20T15:35:39;14.90;;;7.83;;
52468;SDS011;38381;53.688;10.776;2023-12-20T15:40:39;9.07;;;4.30;;
52468;SDS011;38381;53.688;10.776;2023-12-20T15:45:39;9.25;;;4.18;;
52468;SDS011;38381;53.688;10.776;2023-12-20T15:50:40;11.23;;;3.60;;
52468;SDS011;38381;53.688;10.776;2023-12-20T15:55:40;7.35;;;4.20;;
52468;SDS011;38381;53.688;10.776;2023-12-20T16:00:41;7.85;;;3.17;;
52468;SDS011;38381;53.688;10.776;2023-12-20T16:05:42;8.02;;;4.30;;
52468;SDS011;38381;53.688;10.776;2023-12-20T16:10:42;5.82;;;3.40;;
52468;SDS011;38381;53.688;10.776;2023-12-20T16:15:43;5.45;;;3.85;;
52468;SDS011;38381;53.688;10.776;2023-12-20T16:20:44;9.32;;;4.32;;
52468;SDS011;38381;53.688;10.776;2023-12-20T16:25:45;10.98;;;3.95;;
52468;SDS011;38381;53.688;10.776;2023-12-20T16:30:45;4.22;;;3.53;;
52468;SDS011;38381;53.688;10.776;2023-12-20T16:35:46;8.48;;;4.70;;
52468;SDS011;38381;53.688;10.776;2023-12-20T16:40:47;12.02;;;4.93;;
52468;SDS011;38381;53.688;10.776;2023-12-20T16:45:47;8.23;;;4.50;;
52468;SDS011;38381;53.688;10.776;2023-12-20T16:50:48;10.07;;;4.65;;
52468;SDS011;38381;53.688;10.776;2023-12-20T16:55:49;13.68;;;5.53;;
52468;SDS011;38381;53.688;10.776;2023-12-20T17:00:49;13.10;;;5.15;;
52468;SDS011;38381;53.688;10.776;2023-12-20T17:05:51;9.10;;;4.18;;
52468;SDS011;38381;53.688;10.776;2023-12-20T17:10:51;10.70;;;4.22;;
52468;SDS011;38381;53.688;10.776;2023-12-20T17:15:52;7.78;;;3.55;;
52468;SDS011;38381;53.688;10.776;2023-12-20T17:20:52;13.88;;;4.95;;
52468;SDS011;38381;53.688;10.776;2023-12-20T17:25:53;8.95;;;4.68;;
52468;SDS011;38381;53.688;10.776;2023-12-20T17:30:53;8.25;;;4.13;;
52468;SDS011;38381;53.688;10.776;2023-12-20T17:35:54;7.05;;;3.63;;
52468;SDS011;38381;53.688;10.776;2023-12-20T17:40:54;11.93;;;3.70;;
52468;SDS011;38381;53.688;10.776;2023-12-20T17:45:54;10.80;;;4.53;;
52468;SDS011;38381;53.688;10.776;2023-12-20T17:50:55;8.23;;;4.07;;
52468;SDS011;38381;53.688;10.776;2023-12-20T17:55:55;7.28;;;3.50;;
52468;SDS011;38381;53.688;10.776;2023-12-20T18:00:56;6.90;;;3.95;;
52468;SDS011;38381;53.688;10.776;2023-12-20T18:05:56;10.20;;;3.88;;
52468;SDS011;38381;53.688;10.776;2023-12-20T18:10:57;5.60;;;2.92;;
52468;SDS011;38381;53.688;10.776;2023-12-20T18:15:57;10.50;;;5.25;;
52468;SDS011;38381;53.688;10.776;2023-12-20T18:20:58;7.53;;;3.67;;
52468;SDS011;38381;53.688;10.776;2023-12-20T18:25:58;5.63;;;4.40;;
52468;SDS011;38381;53.688;10.776;2023-12-20T18:30:59;3.80;;;3.05;;
52468;SDS011;38381;53.688;10.776;2023-12-20T18:35:59;11.33;;;4.07;;
52468;SDS011;38381;53.688;10.776;2023-12-20T18:41:00;6.07;;;2.72;;
52468;SDS011;38381;53.688;10.776;2023-12-20T18:46:00;5.18;;;2.70;;
52468;SDS011;38381;53.688;10.776;2023-12-20T18:51:02;10.20;;;3.70;;
52468;SDS011;38381;53.688;10.776;2023-12-20T18:56:03;4.57;;;3.20;;
52468;SDS011;38381;53.688;10.776;2023-12-20T19:01:04;4.70;;;3.13;;
52468;SDS011;38381;53.688;10.776;2023-12-20T19:06:04;7.50;;;3.58;;
52468;SDS011;38381;53.688;10.776;2023-12-20T19:11:05;7.32;;;2.85;;
52468;SDS011;38381;53.688;10.776;2023-12-20T19:16:06;6.03;;;3.03;;
52468;SDS011;38381;53.688;10.776;2023-12-20T19:21:06;6.82;;;3.15;;
52468;SDS011;38381;53.688;10.776;2023-12-20T19:26:09;7.25;;;3.42;;
52468;SDS011;38381;53.688;10.776;2023-12-20T19:31:09;8.70;;;3.97;;
52468;SDS011;38381;53.688;10.776;2023-12-20T19:36:11;5.83;;;3.40;;
52468;SDS011;38381;53.688;10.776;2023-12-20T19:41:12;8.80;;;4.15;;
52468;SDS011;38381;53.688;10.776;2023-12-20T19:46:12;10.40;;;3.58;;
52468;SDS011;38381;53.688;10.776;2023-12-20T19:51:13;11.40;;;5.18;;
52468;SDS011;38381;53.688;10.776;2023-12-20T19:56:14;6.23;;;3.93;;
52468;SDS011;38381;53.688;10.776;2023-12-20T20:01:15;7.20;;;5.35;;
52468;SDS011;38381;53.688;10.776;2023-12-20T20:06:15;9.43;;;4.63;;
52468;SDS011;38381;53.688;10.776;2023-12-20T20:11:16;8.40;;;4.47;;
52468;SDS011;38381;53.688;10.776;2023-12-20T20:16:16;5.97;;;3.80;;
52468;SDS011;38381;53.688;10.776;2023-12-20T20:21:17;4.32;;;3.47;;
52468;SDS011;38381;53.688;10.776;2023-12-20T20:26:17;10.07;;;3.75;;
52468;SDS011;38381;53.688;10.776;2023-12-20T20:31:18;6.07;;;3.13;;
52468;SDS011;38381;53.688;10.776;2023-12-20T20:36:18;7.03;;;3.45;;
52468;SDS011;38381;53.688;10.776;2023-12-20T20:41:18;6.18;;;3.50;;
52468;SDS011;38381;53.688;10.776;2023-12-20T20:46:20;5.07;;;3.45;;
52468;SDS011;38381;53.688;10.776;2023-12-20T20:51:24;3.92;;;3.22;;
52468;SDS011;38381;53.688;10.776;2023-12-20T20:56:25;6.72;;;2.72;;
52468;SDS011;38381;53.688;10.776;2023-12-20T21:01:25;5.47;;;2.53;;
52468;SDS011;38381;53.688;10.776;2023-12-20T21:06:26;4.95;;;3.55;;
52468;SDS011;38381;53.688;10.776;2023-12-20T21:11:33;6.43;;;3.17;;
52468;SDS011;38381;53.688;10.776;2023-12-20T21:16:34;8.68;;;3.05;;
52468;SDS011;38381;53.688;10.776;2023-12-20T21:21:35;6.20;;;2.97;;
52468;SDS011;38381;53.688;10.776;2023-12-20T21:26:35;5.05;;;2.75;;
52468;SDS011;38381;53.688;10.776;2023-12-20T21:31:36;5.30;;;3.13;;
52468;SDS011;38381;53.688;10.776;2023-12-20T21:36:49;4.78;;;2.63;;
52468;SDS011;38381;53.688;10.776;2023-12-20T21:41:49;3.97;;;2.80;;
52468;SDS011;38381;53.688;10.776;2023-12-20T21:46:51;5.73;;;3.20;;
52468;SDS011;38381;53.688;10.776;2023-12-20T21:51:51;6.03;;;3.58;;
52468;SDS011;38381;53.688;10.776;2023-12-20T21:56:52;5.68;;;3.05;;
52468;SDS011;38381;53.688;10.776;2023-12-20T22:01:53;4.93;;;3.22;;
52468;SDS011;38381;53.688;10.776;2023-12-20T22:06:54;5.95;;;3.53;;
52468;SDS011;38381;53.688;10.776;2023-12-20T22:11:54;5.78;;;3.17;;
52468;SDS011;38381;53.688;10.776;2023-12-20T22:16:55;2.60;;;2.35;;
52468;SDS011;38381;53.688;10.776;2023-12-20T22:21:56;4.25;;;2.80;;
52468;SDS011;38381;53.688;10.776;2023-12-20T22:26:57;5.15;;;2.55;;
52468;SDS011;38381;53.688;10.776;2023-12-20T22:31:58;2.88;;;2.50;;
52468;SDS011;38381;53.688;10.776;2023-12-20T22:36:58;2.90;;;2.60;;
52468;SDS011;38381;53.688;10.776;2023-12-20T22:41:59;3.55;;;2.83;;
52468;SDS011;38381;53.688;10.776;2023-12-20T22:46:59;4.97;;;2.97;;
52468;SDS011;38381;53.688;10.776;2023-12-20T22:52:00;3.40;;;2.70;;
52468;SDS011;38381;53.688;10.776;2023-12-20T22:57:01;3.60;;;2.70;;
52468;SDS011;38381;53.688;10.776;2023-12-20T23:02:01;2.70;;;2.03;;
52468;SDS011;38381;53.688;10.776;2023-12-20T23:07:01;2.75;;;2.15;;
52468;SDS011;38381;53.688;10.776;2023-12-20T23:12:02;4.07;;;2.13;;
52468;SDS011;38381;53.688;10.776;2023-12-20T23:17:03;5.97;;;2.50;;
52468;SDS011;38381;53.688;10.776;2023-12-20T23:22:04;2.53;;;1.98;;
52468;SDS011;38381;53.688;10.776;2023-12-20T23:27:04;3.60;;;2.67;;
52468;SDS011;38381;53.688;10.776;2023-12-20T23:32:05;4.32;;;3.05;;
52468;SDS011;38381;53.688;10.776;2023-12-20T23:37:05;2.78;;;2.47;;
52468;SDS011;38381;53.688;10.776;2023-12-20T23:42:06;2.30;;;2.10;;
52468;SDS011;38381;53.688;10.776;2023-12-20T23:47:06;4.60;;;3.13;;
52468;SDS011;38381;53.688;10.776;2023-12-20T23:52:07;3.03;;;2.40;;
52468;SDS011;38381;53.688;10.776;2023-12-20T23:57:07;4.75;;;2.67;;
